Goteborg, Sweden

9:29 AM CEST on August 20, 2014 (GMT +0200)
IVSTRAGT39 | Change Station
CLOSE
Current Station
Personal Weather Station
Location: Göteborg, Lillhagen, VäSTRA GöTALANDS LäN
Elevation: 39 ft
Nearby Weather Stations

Elev 39 ft 57.74 °N, 11.95 °E | Updated 9 minutes ago

Mostly Cloudy
Mostly Cloudy
61.5 °F
Feels Like 61.5 °F
N
3.1
Wind Variable Wind from SE
Gusts 10.7 mph

Today
High -- | Low -- °F
--% Chance of Precip.
Yesterday
High -- | Low -- °F
Precip. -- in
5:46 AM 8:42 PM
Waning Crescent, 23% visible
Pressure 29.42 in
Visibility 6.2 miles
Clouds Scattered Clouds 2200 ft
Mostly Cloudy 2200 ft
Mostly Cloudy 8200 ft
Dew Point 57 °F
Humidity 84%
Rainfall 0.00 in
Snow Depth Not available.
UV 1 out of 12
Pollen Not available.
Air Quality Not available.
Flu Activity Not available.
METAR ESGP 200720Z 27010KT 9999 SCT022 BKN022CN BKN082 16/12 Q0996

More Conditions Fewer Conditions

Pressure 29.42 in
Visibility 6.2 miles
Clouds Scattered Clouds 2200 ft
Mostly Cloudy 2200 ft
Mostly Cloudy 8200 ft
Dew Point 57 °F
Humidity 84%
Rainfall 0.00 in
Snow Depth Not available.
UV 1 out of 12
Pollen Not available.
Air Quality Not available.
Flu Activity Not available.
METAR ESGP 200720Z 27010KT 9999 SCT022 BKN022CN BKN082 16/12 Q0996

More Conditions Fewer Conditions

10-Day Weather Forecast

Almanac

Astronomy

Aug. 20, 2014 Rise Set
Actual Time 5:46 AM CEST 8:42 PM CEST
Civil Twilight 5:01 AM CEST 9:27 PM CEST
Nautical Twilight 4:01 AM CEST 10:26 PM CEST
Astronomical Twilight 2:32 AM CEST 11:52 PM CEST
Moon 12:48 AM CEST 5:38 PM CEST
Length of Visible Light 16h 25m
Length of Day
14h 56m
Tomorrow will be 4m 45s shorter.
Waning Crescent, 23% of the Moon is Illuminated
Today
Waning Crescent
Aug 25
New
Sep 2
First Quarter
Sep 8
Full
Sep 15
Last Quarter

Yesterday's Extremes

Country Highs Country Lows

Community

WunderPhotos

Upload Photos

1,745,592 photos uploaded!

Nearby

Snow Depth

Not available.

Earthquake Activity

City Distance Mag. Time & Date
No recent earthquake activity has been reported nearby.
Minimum magnitude displayed is 2.5.

Coastal Water Temperatures

Place Temperature
No Stations Reporting

Nearby Weather Stations